Estación Meteorológica Peña el Pijo (Robertgarden) [ 02/21/18 08:27:24 CET ]

Fecha Hora Presion(HPa) Temp (°C) Humedad % Rocio (°C) Viento ( m/s) Direccion Lluvia 1Hora(mm) Lluvia 24H(mm) LLuvia Total(mm)
2018-Feb-08 01:01:52 1003.800 -1.7 77 -5.2         76.66
2018-Feb-08 02:03:10 1003.900 -2.4 78 -5.7         76.66
2018-Feb-08 03:01:49 1004.000 -3.2 79 -6.4         76.66
2018-Feb-08 04:01:33 1003.900 -4.1 80 -7.0         76.66
2018-Feb-08 05:01:37 1003.800 -3.9 81 -6.7         76.66
2018-Feb-08 06:01:42 1003.600 -3.6 81 -6.4         76.66
2018-Feb-08 07:01:39 1003.900 -3.6 81 -6.4         76.66
2018-Feb-08 08:01:54 1004.300 -4.2 81 -6.9         76.66
2018-Feb-08 09:01:43 1004.900 -3.1 82 -5.8         76.66
2018-Feb-08 10:01:35 1004.900 -1.2 82 -3.9         76.66
2018-Feb-08 11:01:33 1005.200 3.3 71 -1.4         76.66
2018-Feb-08 12:01:41 1005.000 5.0 55 -3.3         76.66
2018-Feb-08 13:01:50 1004.400 5.1 51 -4.3         76.66
2018-Feb-08 14:01:54 1003.700 8.8 47 -2.0         76.66
2018-Feb-08 15:01:45 1003.300 8.9 44 -2.8         76.66
2018-Feb-08 16:01:24 1003.500 6.3 48 -3.9         76.66
2018-Feb-08 17:01:37 1003.600 6.6 49 -3.4 1.4 NNW     76.66
2018-Feb-08 18:01:51 1004.100 3.5 51 -5.7 4.6 NW     76.66
2018-Feb-08 19:01:12 1004.600 1.9 56 -6.0 1.7 NNW     76.66
2018-Feb-08 20:01:51 1005.400 0.6 59 -6.5         76.66
2018-Feb-08 21:01:47 1006.000 -0.9 63 -7.1         76.66
2018-Feb-08 22:01:38 1006.500 -1.9 65 -7.6         76.66
2018-Feb-08 23:01:49 1006.700 -2.7 68 -7.8         76.66

Temperatura Máxima:    Temperatura Mínima:-4°
Presión Máxima:1006.700 Hpa    Presión Mínima:1003.300 Hpa


Volver